Date,TemperatureHighF,TemperatureAvgF,TemperatureLowF,DewpointHighF,DewpointAvgF,DewpointLowF,HumidityHigh,HumidityAvg,HumidityLow,PressureMaxIn,PressureMinIn,WindSpeedMaxMPH,WindSpeedAvgMPH,GustSpeedMaxMPH,PrecipitationSumIn
2013-4-1,70.1,54.2,34.8,39.5,28.6,17.0,53,29,12,29.90,29.65,20,3,0,0.00
2013-4-2,62.9,49.1,35.3,33.4,24.6,14.4,49,32,16,29.85,29.61,25,4,0,0.00
2013-4-3,58.7,46.1,30.3,34.0,27.9,20.4,74,49,31,30.06,29.85,12,2,0,0.00
2013-4-4,70.1,50.1,27.1,39.4,27.9,17.1,74,38,14,30.20,29.94,13,2,0,0.00
2013-4-5,72.6,53.5,30.1,41.6,27.5,12.6,53,28,14,29.99,29.63,17,4,0,0.00
2013-4-6,70.7,55.5,35.7,41.6,30.3,17.7,52,30,18,29.80,29.59,18,3,0,0.00
2013-4-7,70.0,56.7,39.5,39.8,30.7,20.5,50,28,15,29.70,29.50,17,4,0,0.00
2013-4-8,71.4,53.9,31.0,41.5,28.5,13.1,51,29,15,29.55,29.15,26,6,0,0.00
2013-4-9,53.1,42.5,33.9,35.0,28.7,25.6,90,62,39,29.74,29.17,33,7,0,0.10
2013-4-10,47.2,37.8,32.6,30.4,24.6,18.3,89,63,35,29.92,29.75,14,5,0,0.01
2013-4-11,60.7,42.9,23.0,35.2,25.6,16.0,83,52,28,29.98,29.75,19,2,0,0.00
2013-4-12,65.8,49.1,34.4,36.9,30.4,21.5,82,48,19,29.84,29.68,13,2,0,0.00
2013-4-13,69.5,54.3,30.8,39.3,29.3,16.2,62,31,14,29.82,29.44,22,4,0,0.00
2013-4-14,69.5,59.9,50.4,41.1,33.5,25.9,35,27,20,29.47,29.31,20,5,0,0.00
2013-4-15,73.5,60.9,47.9,42.5,33.7,25.1,37,24,13,29.48,29.28,31,7,0,0.00
2013-4-16,75.8,64.3,54.7,43.7,35.0,27.3,28,18,10,29.53,29.27,38,11,0,0.00
2013-4-17,61.4,45.5,33.3,32.5,25.3,14.8,85,44,13,29.79,29.37,19,3,0,0.01
2013-4-18,41.8,33.1,25.7,21.1,13.8,8.7,63,46,28,30.27,29.80,16,4,0,0.00
2013-4-19,58.8,40.0,17.4,28.2,14.5,0.9,56,29,14,30.40,29.99,16,3,0,0.00
2013-4-20,63.2,49.6,37.7,33.9,23.1,11.6,42,26,12,29.99,29.71,19,3,0,0.00
2013-4-21,69.3,47.8,27.9,37.6,24.2,13.7,66,35,11,30.06,29.84,17,2,0,0.00
2013-4-22,76.0,57.3,31.9,44.5,29.5,10.3,43,23,12,29.91,29.56,22,4,0,0.00
2013-4-23,66.5,51.4,39.2,36.6,26.7,11.4,55,31,10,29.97,29.55,25,8,0,0.00
2013-4-24,66.9,46.7,23.6,35.2,22.5,7.0,69,33,11,30.16,29.94,14,4,0,0.00
2013-4-25,67.7,53.5,43.7,40.8,30.0,19.6,62,35,20,30.03,29.70,22,3,0,0.00
2013-4-26,68.1,53.7,38.6,41.1,35.8,25.1,86,50,21,30.09,29.85,15,2,0,0.00
2013-4-27,74.2,53.5,30.6,43.0,30.6,19.5,71,36,12,30.17,29.89,15,2,0,0.00
2013-4-28,78.6,58.2,30.9,45.9,30.5,11.8,47,23,9,29.98,29.66,13,2,0,0.00
2013-4-29,81.2,60.5,34.2,49.4,31.9,11.4,40,20,10,29.77,29.48,15,3,0,0.00
2013-4-30,82.7,63.5,37.6,50.7,34.5,14.6,38,20,10,29.63,29.42,16,3,0,0.00